Time;durP1;ratioP1;P1;durP2;ratioP2;P2;SDS_P1;SDS_P2;PMS_P1;PMS_P2;Temp;Humidity;BMP_temperature;BMP_pressure;BME280_temperature;BME280_humidity;BME280_pressure;Samples;Min_cycle;Max_cycle;Signal;HPM_P1;HPM_P2
2022/06/18 00:00:43;;;;;;;;;;;;;;;25.13;55.04;99965.38;7310918;19;129727;-38
2022/06/18 00:03:09;;;;;;;;;;;;;;;25.09;54.86;99950.06;7312874;19;129069;-39
2022/06/18 00:05:36;;;;;;;;;;;;;;;25.14;54.55;99953.88;7311815;19;130092;-37
2022/06/18 00:08:01;;;;;;;;;;;;;;;25.15;54.67;99958.16;7313085;19;128676;-37
2022/06/18 00:10:29;;;;;;;;;;;;;;;25.15;54.52;99957.31;7311719;19;130094;-38
2022/06/18 00:15:58;;;;;;;;;;;;;;;25.05;54.84;99939.00;7311860;19;130397;-38
2022/06/18 00:18:24;;;;;;;;;;;;;;;25.14;54.60;99950.44;7312384;19;128915;-38
2022/06/18 00:20:49;;;;;;;;;;;;;;;24.48;48.57;99941.28;7309241;19;129016;-37
2022/06/18 00:23:15;;;;;;;;;;;;;;;24.37;50.75;99939.69;7312654;19;129303;-39
2022/06/18 00:25:42;;;;;;;;;;;;;;;24.76;54.30;99940.25;7309763;19;131046;-36
2022/06/18 00:28:21;;;;;;;;;;;;;;;24.90;54.79;99934.44;7310969;19;128930;-38
2022/06/18 00:30:47;;;;;;;;;;;;;;;25.00;54.77;99935.19;7309375;19;130094;-37
2022/06/18 00:33:12;;;;;;;;;;;;;;;25.06;53.96;99929.28;7311837;19;129666;-37
2022/06/18 00:35:38;;;;;;;;;;;;;;;25.10;54.56;99938.53;7310195;19;129222;-36
2022/06/18 00:38:04;;;;;;;;;;;;;;;25.12;54.68;99933.97;7311422;19;129390;-37
2022/06/18 00:40:34;;;;;;;;;;;;;;;25.14;54.78;99926.75;7308520;19;128888;-38
2022/06/18 00:43:02;;;;;;;;;;;;;;;25.08;54.69;99922.06;7311634;19;129345;-39
2022/06/18 00:45:29;;;;;;;;;;;;;;;25.13;54.82;99925.91;7311668;19;130253;-37
2022/06/18 00:48:16;;;;;;;;;;;;;;;25.16;54.92;99927.38;7311416;19;129314;-38
2022/06/18 00:50:47;;;;;;;;;;;;;;;25.16;54.74;99925.59;7309548;19;129059;-39
2022/06/18 00:53:18;;;;;;;;;;;;;;;25.16;54.71;99922.97;7311511;19;129578;-37
2022/06/18 00:55:46;;;;;;;;;;;;;;;25.16;54.88;99919.50;7311681;19;129177;-37
2022/06/18 00:58:11;;;;;;;;;;;;;;;25.07;54.46;99899.38;7308945;19;129691;-39
2022/06/18 01:00:38;;;;;;;;;;;;;;;25.17;54.66;99915.91;7308276;19;129928;-37
2022/06/18 01:03:04;;;;;;;;;;;;;;;25.16;54.71;99915.06;7311076;19;129733;-35
2022/06/18 01:05:38;;;;;;;;;;;;;;;24.48;48.98;99907.91;7308934;19;129597;-36
2022/06/18 01:08:15;;;;;;;;;;;;;;;24.40;51.42;99900.81;7312051;19;131466;-36
2022/06/18 01:10:42;;;;;;;;;;;;;;;24.78;54.62;99904.09;7308136;19;128809;-36
2022/06/18 01:13:10;;;;;;;;;;;;;;;24.91;54.48;99904.53;7311279;19;129475;-36
2022/06/18 01:15:36;;;;;;;;;;;;;;;25.01;54.44;99905.25;7311063;19;131489;-37
2022/06/18 01:18:03;;;;;;;;;;;;;;;25.08;54.70;99901.03;7317490;19;129746;-37
2022/06/18 01:20:28;;;;;;;;;;;;;;;24.99;54.57;99881.72;7316580;19;128917;-36
2022/06/18 01:22:58;;;;;;;;;;;;;;;25.13;54.29;99893.50;7317612;19;129493;-36
2022/06/18 01:25:25;;;;;;;;;;;;;;;25.11;54.50;99884.94;7316797;19;130936;-36
2022/06/18 01:27:51;;;;;;;;;;;;;;;25.14;55.10;99892.53;7318406;19;129053;-37
2022/06/18 01:30:18;;;;;;;;;;;;;;;25.13;54.35;99890.88;7315818;19;129829;-36
2022/06/18 01:32:45;;;;;;;;;;;;;;;25.14;54.61;99892.53;7315698;19;132896;-37
2022/06/18 01:35:11;;;;;;;;;;;;;;;25.09;54.75;99871.13;7317059;19;129226;-37
2022/06/18 01:37:36;;;;;;;;;;;;;;;25.17;54.65;99871.97;7317142;19;129784;-37
2022/06/18 01:40:02;;;;;;;;;;;;;;;25.18;55.14;99880.69;7314448;19;129148;-37
2022/06/18 01:42:47;;;;;;;;;;;;;;;25.17;55.26;99871.16;7317161;19;129696;-37
2022/06/18 01:45:16;;;;;;;;;;;;;;;25.15;55.18;99873.13;7316993;19;130417;-37
2022/06/18 01:47:48;;;;;;;;;;;;;;;25.17;54.56;99873.81;7318492;19;129690;-37
2022/06/18 01:50:13;;;;;;;;;;;;;;;24.52;49.12;99874.28;7315001;19;129372;-36
2022/06/18 01:52:43;;;;;;;;;;;;;;;24.42;50.90;99867.31;7317545;19;130001;-36
2022/06/18 01:55:12;;;;;;;;;;;;;;;24.79;54.13;99871.56;7315047;19;129217;-41
2022/06/18 01:57:39;;;;;;;;;;;;;;;24.93;54.77;99871.00;7316929;19;129036;-39
2022/06/18 02:00:12;;;;;;;;;;;;;;;25.00;54.61;99872.03;7315134;19;129905;-36
2022/06/18 02:02:38;;;;;;;;;;;;;;;24.98;54.66;99852.94;7316922;19;129918;-38
2022/06/18 02:05:04;;;;;;;;;;;;;;;25.11;54.66;99861.25;7316896;19;129392;-36
2022/06/18 02:07:29;;;;;;;;;;;;;;;25.12;54.33;99857.66;7315513;19;129395;-38
2022/06/18 02:10:01;;;;;;;;;;;;;;;25.15;54.44;99859.97;7314578;19;129758;-37
2022/06/18 02:12:34;;;;;;;;;;;;;;;25.15;54.26;99849.44;7316789;19;129744;-39
2022/06/18 02:15:01;;;;;;;;;;;;;;;25.15;54.67;99854.72;7316179;19;129443;-36
2022/06/18 02:17:27;;;;;;;;;;;;;;;25.14;54.80;99850.44;7315744;19;129683;-38
2022/06/18 02:19:55;;;;;;;;;;;;;;;25.17;55.03;99852.75;7314108;19;128954;-40
2022/06/18 02:22:24;;;;;;;;;;;;;;;25.07;54.79;99828.34;7314191;19;130385;-40
2022/06/18 02:24:49;;;;;;;;;;;;;;;25.17;54.46;99847.50;7315347;19;129719;-37
2022/06/18 02:27:15;;;;;;;;;;;;;;;25.17;54.41;99848.28;7312974;19;128850;-41
2022/06/18 02:29:41;;;;;;;;;;;;;;;25.16;55.27;99846.66;7314269;19;128934;-36
2022/06/18 02:32:11;;;;;;;;;;;;;;;25.17;55.26;99850.13;7316706;19;131602;-36
2022/06/18 02:34:37;;;;;;;;;;;;;;;24.53;48.43;99844.41;7315632;19;130520;-37
2022/06/18 02:37:11;;;;;;;;;;;;;;;24.34;48.45;99838.34;7316659;19;129127;-37
2022/06/18 02:39:39;;;;;;;;;;;;;;;24.75;54.83;99841.28;7313641;19;131042;-37
2022/06/18 02:42:10;;;;;;;;;;;;;;;24.90;54.44;99845.84;7315126;19;129879;-37
2022/06/18 02:44:39;;;;;;;;;;;;;;;25.03;54.51;99840.16;7313955;19;129977;-37
2022/06/18 02:47:06;;;;;;;;;;;;;;;25.08;54.87;99837.88;7316523;19;130121;-35
2022/06/18 02:49:34;;;;;;;;;;;;;;;25.12;54.86;99833.97;7311828;19;129096;-38
2022/06/18 02:51:59;;;;;;;;;;;;;;;25.13;53.93;99840.88;7313551;19;130313;-38
2022/06/18 02:54:25;;;;;;;;;;;;;;;25.16;54.27;99845.81;7312692;19;129861;-35
2022/06/18 02:56:50;;;;;;;;;;;;;;;25.16;54.31;99843.19;7313937;19;129323;-40
2022/06/18 02:59:15;;;;;;;;;;;;;;;25.14;54.69;99842.53;7314322;19;128963;-36
2022/06/18 03:01:40;;;;;;;;;;;;;;;25.16;54.40;99836.13;7313871;19;129138;-36
2022/06/18 03:04:06;;;;;;;;;;;;;;;25.14;54.39;99838.09;7312181;19;129505;-35
2022/06/18 03:06:33;;;;;;;;;;;;;;;25.17;54.42;99834.34;7309832;19;129315;-36
2022/06/18 03:08:58;;;;;;;;;;;;;;;25.18;54.95;99834.16;7313280;19;128783;-38
2022/06/18 03:14:09;;;;;;;;;;;;;;;25.18;54.73;99828.91;7313918;19;129417;-41
2022/06/18 03:16:34;;;;;;;;;;;;;;;25.19;55.05;99829.72;7312264;19;129385;-36
2022/06/18 03:18:59;;;;;;;;;;;;;;;24.56;49.10;99828.31;7312608;19;129874;-37
2022/06/18 03:21:30;;;;;;;;;;;;;;;24.37;48.54;99824.06;7314275;19;129783;-37
2022/06/18 03:23:55;;;;;;;;;;;;;;;24.77;54.26;99823.56;7314383;19;129574;-37
2022/06/18 03:26:21;;;;;;;;;;;;;;;24.91;54.14;99825.59;7315495;19;129142;-37
2022/06/18 03:28:46;;;;;;;;;;;;;;;25.01;55.00;99824.53;7311747;19;129843;-37
2022/06/18 03:31:11;;;;;;;;;;;;;;;25.09;54.56;99821.13;7313140;19;130453;-37
2022/06/18 03:33:37;;;;;;;;;;;;;;;25.11;54.21;99827.03;7314111;19;129601;-38
2022/06/18 03:36:03;;;;;;;;;;;;;;;25.15;54.88;99820.50;7313693;19;129008;-36
2022/06/18 03:38:28;;;;;;;;;;;;;;;25.14;54.63;99814.41;7311663;19;130396;-37
2022/06/18 03:40:54;;;;;;;;;;;;;;;25.16;54.82;99822.13;7311190;19;130074;-36
2022/06/18 03:43:20;;;;;;;;;;;;;;;25.17;54.54;99823.81;7311378;19;130334;-39
2022/06/18 03:45:47;;;;;;;;;;;;;;;25.18;54.85;99815.75;7312408;19;129068;-39
2022/06/18 03:48:32;;;;;;;;;;;;;;;25.17;54.47;99813.28;7313361;19;130021;-36
2022/06/18 03:50:57;;;;;;;;;;;;;;;25.18;54.54;99820.19;7312169;19;130352;-39
2022/06/18 03:53:22;;;;;;;;;;;;;;;25.20;55.04;99810.34;7311212;19;129687;-37
2022/06/18 03:55:48;;;;;;;;;;;;;;;25.20;54.48;99810.34;7312881;19;129383;-38
2022/06/18 03:58:14;;;;;;;;;;;;;;;25.20;54.71;99802.44;7309957;19;128780;-39
2022/06/18 04:00:39;;;;;;;;;;;;;;;25.18;55.16;99802.59;7310689;19;131557;-37
2022/06/18 04:03:04;;;;;;;;;;;;;;;24.63;48.83;99805.66;7311579;19;129205;-37
2022/06/18 04:05:32;;;;;;;;;;;;;;;24.30;48.84;99786.22;7309924;19;130909;-39
2022/06/18 04:07:57;;;;;;;;;;;;;;;24.73;54.43;99806.44;7312623;19;130187;-39
2022/06/18 04:10:23;;;;;;;;;;;;;;;24.90;54.60;99792.41;7308079;19;129595;-38
2022/06/18 04:12:48;;;;;;;;;;;;;;;25.00;54.20;99799.22;7313361;19;129600;-36
2022/06/18 04:15:15;;;;;;;;;;;;;;;25.09;54.50;99789.56;7310542;19;130867;-37
2022/06/18 04:17:41;;;;;;;;;;;;;;;25.13;54.11;99788.25;7311643;19;129160;-37
2022/06/18 04:20:07;;;;;;;;;;;;;;;25.15;54.60;99786.28;7309682;19;129216;-37
2022/06/18 04:22:32;;;;;;;;;;;;;;;25.06;54.90;99771.44;7310578;19;130948;-40
2022/06/18 04:24:57;;;;;;;;;;;;;;;25.15;54.27;99788.94;7310632;19;129729;-40
2022/06/18 04:27:22;;;;;;;;;;;;;;;25.17;54.72;99789.59;7312093;19;129789;-37
2022/06/18 04:29:47;;;;;;;;;;;;;;;25.17;54.55;99794.88;7309753;19;129659;-38
2022/06/18 04:32:13;;;;;;;;;;;;;;;25.17;55.05;99789.59;7309335;19;129575;-39
2022/06/18 04:34:38;;;;;;;;;;;;;;;25.08;54.60;99770.31;7309056;19;129035;-39
2022/06/18 04:37:03;;;;;;;;;;;;;;;25.18;55.22;99785.97;7312724;19;129244;-37
2022/06/18 04:39:29;;;;;;;;;;;;;;;25.11;54.60;99774.41;7308238;19;129347;-38
2022/06/18 04:41:54;;;;;;;;;;;;;;;25.17;55.22;99787.78;7310784;19;130923;-38
2022/06/18 04:44:19;;;;;;;;;;;;;;;25.09;55.22;99771.16;7310413;19;129669;-38
2022/06/18 04:46:45;;;;;;;;;;;;;;;24.73;48.78;99780.97;7308699;19;129764;-37
2022/06/18 04:49:10;;;;;;;;;;;;;;;24.42;48.48;99788.47;7307909;19;129683;-36
2022/06/18 04:51:35;;;;;;;;;;;;;;;24.67;54.19;99788.63;7306562;19;129899;-39
2022/06/18 04:54:00;;;;;;;;;;;;;;;24.85;54.58;99789.41;7311553;19;129117;-36
2022/06/18 04:56:26;;;;;;;;;;;;;;;24.91;54.24;99775.63;7310055;19;129261;-38
2022/06/18 04:58:51;;;;;;;;;;;;;;;25.08;54.14;99790.53;7309273;19;130045;-36
2022/06/18 05:01:18;;;;;;;;;;;;;;;25.14;54.45;99784.66;7312033;19;129816;-36
2022/06/18 05:03:44;;;;;;;;;;;;;;;25.05;54.75;99768.00;7308154;19;129102;-36
2022/06/18 05:06:09;;;;;;;;;;;;;;;25.17;54.22;99779.06;7309737;19;129871;-37
2022/06/18 05:08:34;;;;;;;;;;;;;;;25.17;54.38;99777.25;7309770;19;129873;-38
2022/06/18 05:11:00;;;;;;;;;;;;;;;25.16;54.84;99766.88;7307567;19;129833;-37
2022/06/18 05:13:25;;;;;;;;;;;;;;;25.08;54.62;99756.31;7309325;19;129476;-39
2022/06/18 05:15:53;;;;;;;;;;;;;;;25.18;54.46;99765.75;7309289;19;129081;-38
2022/06/18 05:18:18;;;;;;;;;;;;;;;25.21;54.51;99769.88;7310512;19;129890;-37
2022/06/18 05:20:47;;;;;;;;;;;;;;;25.21;54.90;99760.16;7304667;19;131270;-36
2022/06/18 05:23:13;;;;;;;;;;;;;;;25.20;55.09;99769.06;7309660;19;129516;-37
2022/06/18 05:25:38;;;;;;;;;;;;;;;25.20;55.34;99762.97;7307954;19;129530;-39
2022/06/18 05:28:04;;;;;;;;;;;;;;;25.20;55.29;99763.78;7306821;19;129556;-37
2022/06/18 05:30:29;;;;;;;;;;;;;;;24.83;49.84;99765.06;7305052;19;130377;-37
2022/06/18 05:32:54;;;;;;;;;;;;;;;24.42;48.27;99761.34;7310769;19;129352;-36
2022/06/18 05:35:20;;;;;;;;;;;;;;;24.60;54.54;99761.28;7306306;19;129087;-37
2022/06/18 05:37:46;;;;;;;;;;;;;;;24.84;54.31;99762.28;7310070;19;129003;-38
2022/06/18 05:40:12;;;;;;;;;;;;;;;24.95;54.77;99755.94;7304949;19;129716;-37
2022/06/18 05:42:38;;;;;;;;;;;;;;;25.05;54.63;99759.28;7308551;19;129096;-37
2022/06/18 05:45:04;;;;;;;;;;;;;;;25.12;54.19;99763.75;7308401;19;129289;-38
2022/06/18 05:47:33;;;;;;;;;;;;;;;25.13;54.12;99756.69;7307598;19;130655;-39
2022/06/18 05:49:58;;;;;;;;;;;;;;;25.16;54.87;99758.97;7308277;19;130782;-37
2022/06/18 05:52:25;;;;;;;;;;;;;;;25.16;54.79;99756.34;7305857;19;129331;-37
2022/06/18 05:54:53;;;;;;;;;;;;;;;25.18;54.40;99749.13;7305294;19;129454;-37
2022/06/18 05:57:19;;;;;;;;;;;;;;;25.18;54.41;99747.34;7309702;19;130914;-36
2022/06/18 05:59:45;;;;;;;;;;;;;;;25.19;54.80;99753.41;7304593;19;129988;-38
2022/06/18 06:02:10;;;;;;;;;;;;;;;25.19;54.87;99745.50;7306543;19;129194;-37
2022/06/18 06:04:36;;;;;;;;;;;;;;;25.20;54.88;99742.75;7314869;19;130376;-39
2022/06/18 06:07:02;;;;;;;;;;;;;;;25.20;54.58;99739.28;7316161;19;130177;-37
2022/06/18 06:12:12;;;;;;;;;;;;;;;25.21;54.87;99738.28;7313415;19;130240;-37
2022/06/18 06:14:38;;;;;;;;;;;;;;;24.74;50.34;99730.06;7316801;19;130211;-37
2022/06/18 06:17:04;;;;;;;;;;;;;;;24.46;48.61;99742.47;7314337;19;130726;-37
2022/06/18 06:19:29;;;;;;;;;;;;;;;24.63;53.58;99738.16;7312818;19;130477;-38
2022/06/18 06:21:54;;;;;;;;;;;;;;;24.86;54.59;99738.50;7314866;19;130608;-37
2022/06/18 06:24:20;;;;;;;;;;;;;;;24.87;55.00;99719.91;7313529;19;128894;-37
2022/06/18 06:26:45;;;;;;;;;;;;;;;25.06;54.66;99739.88;7316790;19;129507;-37
2022/06/18 06:29:10;;;;;;;;;;;;;;;25.13;54.16;99740.88;7312223;19;130762;-36
2022/06/18 06:31:36;;;;;;;;;;;;;;;25.14;54.30;99732.03;7314611;19;129674;-35
2022/06/18 06:34:01;;;;;;;;;;;;;;;25.07;54.89;99715.22;7314671;19;129151;-38
2022/06/18 06:36:26;;;;;;;;;;;;;;;25.17;54.24;99731.72;7314698;19;129277;-37
2022/06/18 06:38:51;;;;;;;;;;;;;;;25.16;54.63;99730.03;7314799;19;130118;-37
2022/06/18 06:41:19;;;;;;;;;;;;;;;25.17;55.01;99729.06;7315414;19;129694;-38
2022/06/18 06:43:45;;;;;;;;;;;;;;;25.17;54.51;99722.00;7315407;19;129153;-38
2022/06/18 06:46:12;;;;;;;;;;;;;;;25.18;54.61;99722.81;7314890;19;130027;-36
2022/06/18 06:48:37;;;;;;;;;;;;;;;25.17;54.49;99711.47;7313720;19;130967;-39
2022/06/18 06:51:04;;;;;;;;;;;;;;;25.08;54.62;99704.53;7315292;19;129222;-36
2022/06/18 06:53:29;;;;;;;;;;;;;;;25.19;54.97;99719.19;7315213;19;129246;-38
2022/06/18 06:58:39;;;;;;;;;;;;;;;25.04;51.39;99718.19;7314575;19;129277;-37
2022/06/18 07:01:05;;;;;;;;;;;;;;;24.48;48.85;99717.88;7298054;19;131972;-37
2022/06/18 07:03:32;;;;;;;;;;;;;;;24.55;53.63;99718.88;7306411;19;129791;-37
2022/06/18 07:05:58;;;;;;;;;;;;;;;24.84;54.13;99708.88;7308769;19;130362;-40
2022/06/18 07:08:24;;;;;;;;;;;;;;;24.96;54.92;99707.59;7309996;19;130181;-36
2022/06/18 07:10:50;;;;;;;;;;;;;;;25.04;54.36;99694.50;7312814;19;129377;-36
2022/06/18 07:13:16;;;;;;;;;;;;;;;25.11;54.28;99691.06;7311374;19;129049;-36
2022/06/18 07:15:42;;;;;;;;;;;;;;;25.14;54.74;99690.75;7314818;19;129705;-37
2022/06/18 07:18:13;;;;;;;;;;;;;;;25.06;54.27;99672.31;7311711;19;129704;-36
2022/06/18 07:20:39;;;;;;;;;;;;;;;25.16;54.57;99683.50;7312235;19;129037;-37
2022/06/18 07:23:04;;;;;;;;;;;;;;;25.16;54.23;99687.94;7304294;19;129792;-36
2022/06/18 07:25:29;;;;;;;;;;;;;;;25.15;53.92;99679.25;7311558;19;129884;-37
2022/06/18 07:27:56;;;;;;;;;;;;;;;25.13;54.05;99675.94;7309905;19;131149;-38
2022/06/18 07:30:21;;;;;;;;;;;;;;;25.17;54.46;99673.81;7310417;19;129146;-38
2022/06/18 07:32:48;;;;;;;;;;;;;;;25.19;54.24;99677.94;7311032;19;129726;-36
2022/06/18 07:35:18;;;;;;;;;;;;;;;25.20;54.09;99662.97;7312297;19;130182;-39
2022/06/18 07:37:43;;;;;;;;;;;;;;;25.18;54.38;99659.66;7306258;19;130152;-39
2022/06/18 07:40:08;;;;;;;;;;;;;;;25.19;54.56;99661.31;7308464;19;130858;-40
2022/06/18 07:42:34;;;;;;;;;;;;;;;25.19;54.54;99656.88;7304987;19;129683;-40
2022/06/18 07:45:00;;;;;;;;;;;;;;;25.20;54.24;99652.44;7293186;19;130318;-37
2022/06/18 07:47:25;;;;;;;;;;;;;;;24.98;49.59;99645.97;7309603;19;130763;-37
2022/06/18 07:49:50;;;;;;;;;;;;;;;24.48;47.96;99654.78;7310015;19;130959;-37
2022/06/18 07:52:16;;;;;;;;;;;;;;;24.69;54.22;99644.72;7310649;19;129631;-37
2022/06/18 07:54:42;;;;;;;;;;;;;;;24.90;54.26;99639.84;7308355;19;131184;-36
2022/06/18 07:57:07;;;;;;;;;;;;;;;25.02;54.05;99638.59;7312271;19;130244;-36
2022/06/18 07:59:32;;;;;;;;;;;;;;;25.08;53.88;99638.78;7308269;19;130654;-37
2022/06/18 08:01:58;;;;;;;;;;;;;;;25.12;54.05;99623.50;7311716;19;129797;-37
2022/06/18 08:04:23;;;;;;;;;;;;;;;25.15;54.05;99633.69;7312656;19;130245;-37
2022/06/18 08:06:49;;;;;;;;;;;;;;;25.16;54.72;99624.78;7311891;19;130062;-36
2022/06/18 08:09:14;;;;;;;;;;;;;;;25.15;54.52;99629.25;7308074;19;129055;-36
2022/06/18 08:11:39;;;;;;;;;;;;;;;25.08;54.63;99607.19;7311009;19;129036;-37
2022/06/18 08:14:04;;;;;;;;;;;;;;;25.18;54.26;99618.41;7308555;19;130393;-37
2022/06/18 08:16:30;;;;;;;;;;;;;;;25.18;54.26;99622.84;7309717;19;129249;-36
2022/06/18 08:18:55;;;;;;;;;;;;;;;25.18;54.33;99622.84;7304587;19;129692;-36
2022/06/18 08:21:29;;;;;;;;;;;;;;;25.18;54.41;99609.69;7309110;19;129500;-37
2022/06/18 08:23:56;;;;;;;;;;;;;;;25.19;54.55;99613.94;7309713;19;130289;-37
2022/06/18 08:26:21;;;;;;;;;;;;;;;25.19;54.08;99608.69;7310768;19;129807;-37
2022/06/18 08:28:47;;;;;;;;;;;;;;;25.19;54.41;99609.50;7311541;19;129668;-38
2022/06/18 08:31:13;;;;;;;;;;;;;;;25.20;54.76;99610.34;7310501;19;129297;-37
2022/06/18 08:33:38;;;;;;;;;;;;;;;24.62;48.70;99606.88;7311093;19;131142;-37
2022/06/18 08:36:06;;;;;;;;;;;;;;;24.39;48.35;99615.31;7309791;19;129680;-37
2022/06/18 08:38:32;;;;;;;;;;;;;;;24.80;54.15;99607.63;7312517;19;128890;-37
2022/06/18 08:41:06;;;;;;;;;;;;;;;24.95;53.65;99606.00;7308042;19;129698;-37
2022/06/18 08:43:43;;;;;;;;;;;;;;;25.04;54.69;99610.31;7311279;19;130056;-37
2022/06/18 08:46:16;;;;;;;;;;;;;;;25.10;54.35;99602.59;7312659;19;130417;-37
2022/06/18 08:48:53;;;;;;;;;;;;;;;25.12;54.45;99602.44;7311349;19;131513;-36
2022/06/18 08:51:37;;;;;;;;;;;;;;;25.13;54.50;99599.66;7311227;19;129074;-37
2022/06/18 08:54:13;;;;;;;;;;;;;;;25.07;54.25;99583.69;7311294;19;129899;-37
2022/06/18 08:56:42;;;;;;;;;;;;;;;25.17;54.33;99592.25;7310156;19;130179;-37
2022/06/18 08:59:17;;;;;;;;;;;;;;;25.09;54.21;99572.00;7309819;19;129399;-37
2022/06/18 09:01:45;;;;;;;;;;;;;;;25.11;54.53;99574.47;7311682;19;131280;-37
2022/06/18 09:04:13;;;;;;;;;;;;;;;25.17;54.30;99584.38;7311588;19;129986;-36
2022/06/18 09:07:07;;;;;;;;;;;;;;;25.18;54.64;99583.38;7312332;19;130044;-37
2022/06/18 09:09:32;;;;;;;;;;;;;;;25.10;54.83;99567.56;7308685;19;128883;-36
2022/06/18 09:11:57;;;;;;;;;;;;;;;25.17;54.62;99579.91;7310804;19;129450;-37
2022/06/18 09:14:32;;;;;;;;;;;;;;;25.19;54.69;99590.25;7311382;19;131232;-37
2022/06/18 09:17:04;;;;;;;;;;;;;;;25.05;51.17;99575.13;7311020;19;129366;-37
2022/06/18 09:19:30;;;;;;;;;;;;;;;24.45;48.61;99579.69;7309858;19;129598;-37
2022/06/18 09:21:57;;;;;;;;;;;;;;;24.58;53.34;99566.91;7310152;19;128899;-36
2022/06/18 09:24:42;;;;;;;;;;;;;;;24.78;54.00;99562.25;7310474;19;130320;-36
2022/06/18 09:27:14;;;;;;;;;;;;;;;24.98;54.35;99568.84;7309616;19;129758;-36
2022/06/18 09:29:44;;;;;;;;;;;;;;;25.08;54.09;99564.28;7309216;19;129464;-36
2022/06/18 09:32:16;;;;;;;;;;;;;;;25.12;54.13;99565.59;7309422;19;130678;-36
2022/06/18 09:34:59;;;;;;;;;;;;;;;25.14;54.26;99564.44;7311355;19;130184;-37
2022/06/18 09:37:31;;;;;;;;;;;;;;;25.15;54.07;99562.66;7313464;19;130263;-37
2022/06/18 09:39:58;;;;;;;;;;;;;;;25.13;54.43;99561.97;7317502;19;130776;-36
2022/06/18 09:42:37;;;;;;;;;;;;;;;25.16;54.47;99551.13;7318667;19;131169;-37
2022/06/18 09:45:11;;;;;;;;;;;;;;;25.17;55.03;99558.03;7316660;19;131240;-37
2022/06/18 09:47:41;;;;;;;;;;;;;;;25.17;54.96;99555.41;7317474;19;129870;-37
2022/06/18 09:50:36;;;;;;;;;;;;;;;25.17;54.40;99552.78;7316170;19;129682;-35
2022/06/18 09:53:07;;;;;;;;;;;;;;;25.07;55.02;99541.59;7310743;19;129478;-37
2022/06/18 09:55:32;;;;;;;;;;;;;;;25.18;54.77;99549.16;7316052;19;130105;-37
2022/06/18 09:57:58;;;;;;;;;;;;;;;25.15;54.81;99545.06;7317427;19;129279;-37
2022/06/18 10:00:25;;;;;;;;;;;;;;;25.16;54.79;99545.84;7315240;19;129132;-37
2022/06/18 10:02:56;;;;;;;;;;;;;;;24.69;48.99;99542.19;7317860;19;129517;-38
2022/06/18 10:08:10;;;;;;;;;;;;;;;24.73;54.81;99543.50;7318020;19;128933;-37
2022/06/18 10:10:35;;;;;;;;;;;;;;;24.91;54.52;99531.03;7314113;19;129060;-36
2022/06/18 10:13:01;;;;;;;;;;;;;;;25.00;54.57;99530.06;7315283;19;129227;-37
2022/06/18 10:15:27;;;;;;;;;;;;;;;25.09;54.53;99539.63;7315916;19;129703;-37
2022/06/18 10:18:10;;;;;;;;;;;;;;;25.11;54.66;99532.38;7317556;19;129219;-37
2022/06/18 10:20:45;;;;;;;;;;;;;;;25.14;54.60;99534.69;7315072;19;129488;-37
2022/06/18 10:23:29;;;;;;;;;;;;;;;25.15;55.04;99528.44;7317343;19;128899;-37
2022/06/18 10:25:58;;;;;;;;;;;;;;;25.16;54.53;99540.59;7318004;19;130697;-37
2022/06/18 10:28:35;;;;;;;;;;;;;;;25.16;54.51;99523.00;7317368;19;131108;-37
2022/06/18 10:31:00;;;;;;;;;;;;;;;25.15;54.82;99520.53;7315383;19;129664;-36
2022/06/18 10:33:32;;;;;;;;;;;;;;;25.17;54.79;99521.22;7317408;19;129146;-37
2022/06/18 10:36:00;;;;;;;;;;;;;;;25.17;54.81;99521.22;7315562;19;129191;-37
2022/06/18 10:38:40;;;;;;;;;;;;;;;25.17;54.80;99523.84;7316529;19;129250;-36
2022/06/18 10:41:05;;;;;;;;;;;;;;;25.17;54.46;99516.75;7315776;19;129395;-36
2022/06/18 10:43:40;;;;;;;;;;;;;;;25.17;54.90;99523.84;7315057;19;129710;-37
2022/06/18 10:46:11;;;;;;;;;;;;;;;25.17;55.02;99515.94;7317122;19;130209;-37
2022/06/18 10:48:36;;;;;;;;;;;;;;;24.64;48.78;99512.91;7311148;19;130854;-37
2022/06/18 10:51:02;;;;;;;;;;;;;;;24.39;48.56;99504.94;7316722;19;129562;-37
2022/06/18 10:53:35;;;;;;;;;;;;;;;24.70;54.01;99507.84;7314811;19;130041;-37
2022/06/18 10:56:05;;;;;;;;;;;;;;;24.79;54.12;99493.72;7314835;19;129003;-36
2022/06/18 10:58:31;;;;;;;;;;;;;;;25.01;54.37;99497.50;7314647;19;129281;-37
2022/06/18 11:01:12;;;;;;;;;;;;;;;25.06;54.62;99488.16;7314085;19;131057;-36
2022/06/18 11:03:37;;;;;;;;;;;;;;;25.10;54.04;99493.91;7314659;19;129459;-36
2022/06/18 11:06:08;;;;;;;;;;;;;;;25.13;54.85;99493.56;7315370;19;130266;-37
2022/06/18 11:08:35;;;;;;;;;;;;;;;25.14;54.28;99500.50;7315597;19;129700;-37
2022/06/18 11:11:07;;;;;;;;;;;;;;;25.14;54.58;99495.22;7314957;19;130236;-37
2022/06/18 11:13:35;;;;;;;;;;;;;;;25.15;54.79;99481.91;7316049;19;129668;-36
2022/06/18 11:16:05;;;;;;;;;;;;;;;25.15;54.99;99483.72;7314900;19;131201;-37
2022/06/18 11:18:30;;;;;;;;;;;;;;;25.15;54.50;99496.88;7316025;19;131806;-36
2022/06/18 11:21:06;;;;;;;;;;;;;;;25.17;54.81;99485.19;7312101;19;129132;-37
2022/06/18 11:23:34;;;;;;;;;;;;;;;25.17;54.89;99479.13;7314880;19;129320;-36
2022/06/18 11:25:59;;;;;;;;;;;;;;;25.17;54.70;99481.75;7313679;19;130691;-37
2022/06/18 11:28:39;;;;;;;;;;;;;;;25.07;55.12;99467.94;7313599;19;130111;-37
2022/06/18 11:31:06;;;;;;;;;;;;;;;25.16;55.13;99487.97;7314680;19;129284;-36
2022/06/18 11:33:37;;;;;;;;;;;;;;;24.53;49.13;99479.03;7311460;19;128859;-37
2022/06/18 11:36:14;;;;;;;;;;;;;;;24.38;48.58;99484.91;7314851;19;132025;-37
2022/06/18 11:38:40;;;;;;;;;;;;;;;24.79;54.07;99480.56;7313085;19;130093;-36
2022/06/18 11:41:09;;;;;;;;;;;;;;;24.90;54.72;99482.88;7315767;19;128852;-37
2022/06/18 11:43:56;;;;;;;;;;;;;;;25.03;54.44;99482.38;7313821;19;129823;-36
2022/06/18 11:46:42;;;;;;;;;;;;;;;25.10;54.21;99470.22;7313869;19;129562;-37
2022/06/18 11:49:07;;;;;;;;;;;;;;;25.11;54.38;99456.06;7311992;19;130183;-37
2022/06/18 11:51:32;;;;;;;;;;;;;;;25.15;54.64;99462.66;7312536;19;129651;-36
2022/06/18 11:54:03;;;;;;;;;;;;;;;25.14;54.83;99458.41;7313618;19;128931;-37
2022/06/18 11:56:34;;;;;;;;;;;;;;;25.15;54.18;99452.97;7313752;19;129511;-36
2022/06/18 11:59:18;;;;;;;;;;;;;;;25.17;55.21;99460.69;7312593;19;131210;-37
2022/06/18 12:01:56;;;;;;;;;;;;;;;25.15;54.68;99450.34;7313131;19;129413;-37
2022/06/18 12:04:21;;;;;;;;;;;;;;;25.15;55.19;99454.78;7312986;19;129711;-37
2022/06/18 12:06:49;;;;;;;;;;;;;;;25.15;54.39;99460.03;7313249;19;129786;-37
2022/06/18 12:09:15;;;;;;;;;;;;;;;25.17;54.61;99447.53;7312229;19;130963;-37
2022/06/18 12:11:43;;;;;;;;;;;;;;;25.16;54.63;99451.13;7313575;19;128999;-37
2022/06/18 12:14:19;;;;;;;;;;;;;;;25.15;55.38;99449.50;7312250;19;129236;-37
2022/06/18 12:16:56;;;;;;;;;;;;;;;24.92;50.70;99448.53;7313360;19;129400;-36
2022/06/18 12:19:39;;;;;;;;;;;;;;;24.42;49.08;99445.97;7311065;19;129729;-36
2022/06/18 12:22:21;;;;;;;;;;;;;;;24.64;54.09;99434.84;7313320;19;129397;-37
2022/06/18 12:24:54;;;;;;;;;;;;;;;24.86;54.76;99423.69;7313313;19;132037;-37
2022/06/18 12:27:28;;;;;;;;;;;;;;;24.97;54.70;99419.94;7312921;19;129728;-36
2022/06/18 12:29:56;;;;;;;;;;;;;;;25.06;54.63;99432.91;7311375;19;131477;-37
2022/06/18 12:32:25;;;;;;;;;;;;;;;25.11;54.46;99416.63;7312142;19;130689;-37
2022/06/18 12:34:50;;;;;;;;;;;;;;;25.03;54.68;99404.31;7312544;19;131004;-37
2022/06/18 12:37:15;;;;;;;;;;;;;;;25.13;54.33;99414.66;7312535;19;130125;-37
2022/06/18 12:39:46;;;;;;;;;;;;;;;25.13;54.51;99407.59;7311203;19;129763;-37
2022/06/18 12:42:35;;;;;;;;;;;;;;;25.13;54.69;99407.59;7312707;19;129371;-36
2022/06/18 12:45:06;;;;;;;;;;;;;;;25.14;55.02;99405.78;7310924;19;129693;-36
2022/06/18 12:47:39;;;;;;;;;;;;;;;25.16;55.12;99409.03;7311381;19;129494;-37
2022/06/18 12:50:13;;;;;;;;;;;;;;;25.17;54.49;99410.72;7311668;19;130576;-37
2022/06/18 12:52:39;;;;;;;;;;;;;;;25.06;54.59;99385.56;7311069;19;129592;-37
2022/06/18 12:55:23;;;;;;;;;;;;;;;25.16;54.89;99398.53;7312682;19;129867;-37